Time;durP1;ratioP1;P1;durP2;ratioP2;P2;SDS_P1;SDS_P2;PMS_P1;PMS_P2;Temp;Humidity;BMP_temperature;BMP_pressure;BME280_temperature;BME280_humidity;BME280_pressure;Samples;Min_cycle;Max_cycle;Signal;HPM_P1;HPM_P2
2022/03/04 00:03:54;;;;;;;26.60;14.53;;;;;;;2.78;62.64;95756.50;10287361;28;96880;-72
2022/03/04 00:08:57;;;;;;;23.35;14.25;;;;;;;2.77;62.73;95749.69;10278494;28;96842;-72
2022/03/04 00:14:02;;;;;;;21.33;12.65;;;;;;;2.72;62.09;95750.94;10284427;28;97181;-72
2022/03/04 00:19:09;;;;;;;21.08;12.90;;;;;;;2.69;62.52;95752.81;10287201;28;97019;-72
2022/03/04 00:24:13;;;;;;;24.58;14.05;;;;;;;2.55;63.07;95750.44;10282842;28;96734;-72
2022/03/04 00:29:17;;;;;;;23.35;12.57;;;;;;;2.41;63.84;95748.84;10285007;28;96892;-72
2022/03/04 00:34:21;;;;;;;;;;;;;;;2.19;64.25;95754.69;10270680;28;97126;-72
2022/03/04 00:39:24;;;;;;;20.65;11.70;;;;;;;2.04;64.22;95754.03;10271729;28;96950;-72
2022/03/04 00:44:28;;;;;;;22.80;12.15;;;;;;;2.08;64.33;95752.06;10290782;28;98847;-72
2022/03/04 00:49:31;;;;;;;19.08;11.85;;;;;;;2.13;63.51;95745.66;10276161;28;96834;-72
2022/03/04 00:54:34;;;;;;;17.70;11.32;;;;;;;2.10;63.54;95755.34;10285687;28;96920;-72
2022/03/04 00:59:39;;;;;;;19.40;12.00;;;;;;;2.05;63.27;95749.69;10287522;28;97132;-72
2022/03/04 01:04:43;;;;;;;23.00;12.48;;;;;;;1.91;64.14;95746.31;10283410;28;98716;-72
2022/03/04 01:09:46;;;;;;;18.63;11.43;;;;;;;1.88;64.42;95745.72;10281911;28;97354;-72
2022/03/04 01:14:51;;;;;;;25.05;14.63;;;;;;;1.86;64.14;95742.41;10273781;28;97330;-71
2022/03/04 01:19:54;;;;;;;21.67;12.25;;;;;;;1.79;63.88;95742.00;10293645;28;96772;-72
2022/03/04 01:24:57;;;;;;;20.40;10.88;;;;;;;1.77;64.59;95738.72;10291306;28;97968;-72
2022/03/04 01:30:03;;;;;;;21.83;11.75;;;;;;;1.77;64.22;95738.72;10290801;28;96972;-72
2022/03/04 01:35:08;;;;;;;23.75;12.15;;;;;;;1.70;64.56;95734.94;10289527;28;98048;-72
2022/03/04 01:40:12;;;;;;;21.85;12.52;;;;;;;1.75;64.03;95731.09;10290564;28;100306;-71
2022/03/04 01:45:17;;;;;;;20.37;11.47;;;;;;;1.65;63.96;95730.09;10292480;28;96972;-72
2022/03/04 01:50:20;;;;;;;18.57;11.10;;;;;;;1.56;63.66;95741.84;10288959;28;97128;-71
2022/03/04 01:55:23;;;;;;;18.10;11.07;;;;;;;1.60;63.47;95736.50;10274513;28;96892;-72
2022/03/04 02:00:27;;;;;;;23.48;13.02;;;;;;;1.47;64.24;95737.34;10280492;28;97006;-72
2022/03/04 02:05:30;;;;;;;18.35;11.73;;;;;;;1.32;64.74;95739.19;10277427;28;97927;-72
2022/03/04 02:10:33;;;;;;;20.65;10.85;;;;;;;1.05;66.64;95746.97;10268080;28;96691;-72
2022/03/04 02:15:38;;;;;;;20.75;10.63;;;;;;;1.05;65.51;95748.75;10286943;28;96876;-72
2022/03/04 02:20:44;;;;;;;19.65;11.00;;;;;;;1.09;65.55;95739.91;10285930;28;97489;-72
2022/03/04 02:25:51;;;;;;;18.55;10.15;;;;;;;1.17;65.57;95741.06;10289318;28;97137;-72
2022/03/04 02:30:54;;;;;;;18.35;10.18;;;;;;;1.17;64.96;95746.19;10279119;28;96752;-72
2022/03/04 02:35:57;;;;;;;16.10;9.98;;;;;;;1.09;64.58;95742.50;10285260;28;97975;-72
2022/03/04 02:41:02;;;;;;;17.20;9.95;;;;;;;1.03;64.85;95742.88;10284071;28;97341;-72
2022/03/04 02:46:04;;;;;;;15.07;9.55;;;;;;;0.99;64.23;95739.69;10275701;28;96908;-72
2022/03/04 02:51:08;;;;;;;19.98;11.25;;;;;;;0.85;65.55;95744.94;10287660;28;97520;-72
2022/03/04 02:56:12;;;;;;;17.95;11.05;;;;;;;0.78;66.13;95745.31;10286880;28;97120;-72
2022/03/04 03:01:15;;;;;;;17.38;10.80;;;;;;;0.79;65.57;95743.56;10289381;28;97167;-72
2022/03/04 03:06:19;;;;;;;21.85;11.20;;;;;;;0.83;65.66;95741.59;10278484;28;97175;-71
2022/03/04 03:11:23;;;;;;;16.58;10.07;;;;;;;0.74;64.88;95745.59;10279912;28;96938;-72
2022/03/04 03:16:26;;;;;;;19.80;10.27;;;;;;;0.66;64.69;95764.09;10281900;28;97682;-72
2022/03/04 03:21:29;;;;;;;18.17;9.52;;;;;;;0.58;64.29;95763.75;10283564;28;97479;-72
2022/03/04 03:26:34;;;;;;;15.75;9.43;;;;;;;0.48;64.50;95765.28;10286750;28;97259;-71
2022/03/04 03:31:36;;;;;;;20.45;10.55;;;;;;;0.45;64.35;95765.50;10273062;28;96884;-72
2022/03/04 03:36:39;;;;;;;19.63;10.65;;;;;;;0.55;64.22;95774.25;10284949;28;97236;-72
2022/03/04 03:41:44;;;;;;;18.83;11.68;;;;;;;0.59;64.26;95763.66;10262752;28;96913;-71
2022/03/04 03:46:47;;;;;;;23.30;11.10;;;;;;;0.51;64.29;95768.47;10282813;28;98849;-72
2022/03/04 03:51:50;;;;;;;18.52;9.85;;;;;;;0.40;63.67;95761.44;10282600;28;98338;-72
2022/03/04 03:56:55;;;;;;;18.40;10.85;;;;;;;0.29;64.39;95763.03;10285247;28;97266;-72
2022/03/04 04:01:59;;;;;;;17.90;11.23;;;;;;;0.18;64.78;95761.16;10273434;28;98349;-71
2022/03/04 04:07:03;;;;;;;21.52;11.35;;;;;;;-0.04;65.81;95762.50;10284149;28;96868;-71
2022/03/04 04:12:09;;;;;;;24.38;13.05;;;;;;;-0.38;68.13;95779.13;10295548;28;97700;-71
2022/03/04 04:17:12;;;;;;;17.70;10.95;;;;;;;-0.46;68.97;95778.75;10269473;28;96869;-72
2022/03/04 04:22:15;;;;;;;21.80;11.60;;;;;;;-0.26;68.12;95787.84;10272656;28;97338;-72
2022/03/04 04:27:19;;;;;;;15.25;9.90;;;;;;;-0.17;67.68;95782.13;10282273;28;97835;-72
2022/03/04 04:32:22;;;;;;;20.10;10.07;;;;;;;-0.10;67.57;95785.97;10290747;28;96928;-71
2022/03/04 04:37:25;;;;;;;18.02;9.70;;;;;;;-0.12;68.67;95789.56;10291701;28;97031;-72
2022/03/04 04:42:29;;;;;;;17.73;9.82;;;;;;;-0.12;67.78;95790.38;10294166;28;97102;-72
2022/03/04 04:47:33;;;;;;;17.85;9.93;;;;;;;-0.17;67.16;95802.66;10292794;28;96900;-71
2022/03/04 04:52:35;;;;;;;14.70;7.75;;;;;;;-0.24;66.54;95793.69;10289491;28;97172;-71
2022/03/04 04:57:40;;;;;;;16.23;9.38;;;;;;;-0.35;66.52;95799.47;10290120;28;97002;-72
2022/03/04 05:02:43;;;;;;;14.05;8.73;;;;;;;-0.45;66.26;95790.69;10280212;28;96850;-72
2022/03/04 05:07:46;;;;;;;15.25;7.78;;;;;;;-0.43;66.72;95787.09;10277635;28;97754;-72
2022/03/04 05:12:50;;;;;;;15.55;8.50;;;;;;;-0.49;66.43;95792.59;10291652;28;96906;-72
2022/03/04 05:17:53;;;;;;;12.82;8.32;;;;;;;-0.66;65.61;95797.91;10296861;28;97305;-71
2022/03/04 05:22:56;;;;;;;14.57;8.45;;;;;;;-0.71;66.48;95796.41;10272429;28;96805;-72
2022/03/04 05:28:00;;;;;;;14.07;8.10;;;;;;;-0.67;67.26;95803.94;10285147;28;97029;-72
2022/03/04 05:33:03;;;;;;;16.02;8.90;;;;;;;-0.71;67.15;95798.97;10288565;28;96910;-72
2022/03/04 05:38:06;;;;;;;14.30;7.82;;;;;;;-0.76;66.48;95802.75;10285057;28;97016;-72
2022/03/04 05:43:10;;;;;;;14.25;7.80;;;;;;;-0.88;65.77;95806.84;10284801;28;96894;-72
2022/03/04 05:48:13;;;;;;;13.90;7.93;;;;;;;-0.91;66.88;95807.00;10289408;28;96947;-71
2022/03/04 05:53:16;;;;;;;13.43;7.75;;;;;;;-0.96;66.67;95809.84;10280655;28;99851;-72
2022/03/04 05:58:20;;;;;;;20.38;10.05;;;;;;;-1.16;68.01;95808.41;10278754;28;98456;-71
2022/03/04 06:03:24;;;;;;;17.60;10.27;;;;;;;-1.20;67.99;95817.19;10281137;28;97633;-72
2022/03/04 06:08:27;;;;;;;17.05;10.02;;;;;;;-1.21;68.85;95814.72;10281628;28;96916;-72
2022/03/04 06:13:32;;;;;;;15.15;8.70;;;;;;;-1.15;67.45;95809.25;10274620;28;98105;-71
2022/03/04 06:18:35;;;;;;;14.25;8.00;;;;;;;-1.15;66.84;95815.19;10277614;28;97358;-72
2022/03/04 06:23:39;;;;;;;18.17;9.57;;;;;;;-1.17;67.80;95827.28;10270389;28;96941;-72
2022/03/04 06:28:44;;;;;;;17.23;9.10;;;;;;;-1.13;68.57;95826.19;10280622;28;98735;-72
2022/03/04 06:33:47;;;;;;;16.43;8.73;;;;;;;-1.08;68.62;95831.88;10282238;28;96946;-72
2022/03/04 06:38:50;;;;;;;11.30;7.25;;;;;;;-1.08;66.79;95843.88;10287527;28;100062;-72
2022/03/04 06:43:54;;;;;;;15.93;8.32;;;;;;;-1.15;66.48;95845.97;10281901;28;97753;-72
2022/03/04 06:48:57;;;;;;;14.20;8.02;;;;;;;-1.15;66.61;95845.97;10283374;28;96964;-71
2022/03/04 06:54:00;;;;;;;19.63;8.70;;;;;;;-1.12;66.36;95856.03;10276657;28;97592;-71
2022/03/04 06:59:04;;;;;;;13.98;7.55;;;;;;;-1.10;65.05;95854.22;10281702;28;97571;-72
2022/03/04 07:04:09;;;;;;;13.23;8.18;;;;;;;-1.02;65.73;95856.34;10285279;28;96846;-72
2022/03/04 07:09:12;;;;;;;14.93;8.02;;;;;;;-1.00;64.96;95869.06;10284825;28;97203;-71
2022/03/04 07:14:16;;;;;;;17.98;9.27;;;;;;;-0.85;66.31;95872.53;10283140;28;97290;-71
2022/03/04 07:19:19;;;;;;;18.63;10.50;;;;;;;-0.79;65.67;95878.13;10284402;28;97036;-72
2022/03/04 07:24:22;;;;;;;22.95;11.25;;;;;;;-0.68;64.90;95884.38;10271416;28;97027;-72
2022/03/04 07:29:27;;;;;;;16.58;9.45;;;;;;;-0.61;66.45;95885.69;10278870;28;97152;-71
2022/03/04 07:34:30;;;;;;;21.73;12.88;;;;;;;-0.50;67.98;95893.56;10266765;28;97075;-71
2022/03/04 07:39:33;;;;;;;22.08;10.98;;;;;;;-0.34;68.07;95894.34;10285736;28;96780;-72
2022/03/04 07:44:37;;;;;;;22.65;12.80;;;;;;;-0.16;68.72;95901.91;10275480;28;96987;-72
2022/03/04 07:49:42;;;;;;;31.58;13.35;;;;;;;0.04;68.68;95914.34;10275856;28;98954;-72
2022/03/04 07:54:45;;;;;;;24.42;12.77;;;;;;;0.30;69.65;95909.41;10284123;28;98537;-71
2022/03/04 07:59:49;;;;;;;24.58;12.88;;;;;;;0.59;68.46;95914.50;10270529;28;97637;-72
2022/03/04 08:04:52;;;;;;;19.27;11.25;;;;;;;0.87;67.87;95915.38;10278314;28;97202;-72
2022/03/04 08:09:55;;;;;;;23.38;12.48;;;;;;;1.08;66.90;95916.56;10284117;28;97249;-72
2022/03/04 08:14:59;;;;;;;22.02;12.77;;;;;;;1.21;66.82;95911.50;10276472;28;97020;-72
2022/03/04 08:20:07;;;;;;;26.10;13.63;;;;;;;1.30;66.52;95912.66;10259291;28;98275;-72
2022/03/04 08:25:10;;;;;;;25.23;13.98;;;;;;;1.32;65.69;95924.47;10278399;28;99952;-72
2022/03/04 08:30:15;;;;;;;28.42;14.88;;;;;;;1.39;66.18;95911.22;10279387;28;98655;-72
2022/03/04 08:35:18;;;;;;;21.58;13.73;;;;;;;1.48;66.15;95914.00;10271106;28;97499;-72
2022/03/04 08:40:21;;;;;;;22.40;13.48;;;;;;;1.57;65.88;95910.00;10281715;28;96968;-71
2022/03/04 08:45:25;;;;;;;24.10;13.60;;;;;;;1.75;65.40;95908.00;10287428;28;97496;-72
2022/03/04 08:50:28;;;;;;;23.80;13.63;;;;;;;1.86;64.52;95913.22;10276923;28;96961;-72
2022/03/04 08:55:31;;;;;;;23.60;13.80;;;;;;;2.03;64.36;95909.53;10281650;28;97521;-72
2022/03/04 09:00:35;;;;;;;22.63;13.35;;;;;;;2.18;63.73;95917.16;10280154;28;98589;-72
2022/03/04 09:05:38;;;;;;;21.65;13.23;;;;;;;2.30;63.76;95922.31;10278604;28;96810;-72
2022/03/04 09:10:41;;;;;;;23.70;13.60;;;;;;;2.45;62.82;95915.25;10275126;28;98774;-72
2022/03/04 09:15:46;;;;;;;24.75;13.85;;;;;;;2.53;62.95;95911.31;10279603;28;97764;-72
2022/03/04 09:20:49;;;;;;;24.63;13.05;;;;;;;2.65;62.71;95908.72;10283997;28;99139;-72
2022/03/04 09:25:52;;;;;;;17.00;11.93;;;;;;;2.78;62.17;95902.72;10284034;28;98884;-72
2022/03/04 09:30:56;;;;;;;22.83;13.88;;;;;;;2.94;61.75;95911.00;10292095;28;98632;-71
2022/03/04 09:36:00;;;;;;;20.42;13.13;;;;;;;3.04;61.23;95906.84;10292112;28;97836;-72
2022/03/04 09:41:04;;;;;;;22.88;13.88;;;;;;;3.29;60.87;95893.91;10280572;28;96999;-72
2022/03/04 09:46:08;;;;;;;19.63;13.57;;;;;;;3.57;59.85;95893.56;10283924;28;99141;-72
2022/03/04 09:51:11;;;;;;;18.33;12.17;;;;;;;3.76;59.14;95898.19;10274751;28;98328;-72
2022/03/04 09:56:14;;;;;;;21.50;13.60;;;;;;;3.91;59.11;95896.19;10272170;28;96893;-72
2022/03/04 10:01:19;;;;;;;19.88;13.60;;;;;;;4.04;58.50;95905.63;10272753;28;98318;-72
2022/03/04 10:06:23;;;;;;;;;;;;;;;4.11;58.08;95897.28;10281348;28;97146;-71
2022/03/04 10:11:30;;;;;;;19.40;12.87;;;;;;;4.17;58.58;95894.22;10288928;28;97569;-72
2022/03/04 10:16:36;;;;;;;22.80;14.52;;;;;;;4.35;58.10;95893.75;10280466;28;96827;-72
2022/03/04 10:21:48;;;;;;;23.08;13.77;;;;;;;4.59;57.36;95901.38;10274538;28;98131;-72
2022/03/04 10:26:59;;;;;;;23.35;13.65;;;;;;;4.70;56.51;95890.22;10285132;28;98100;-72
2022/03/04 10:32:11;;;;;;;21.90;14.70;;;;;;;4.83;56.84;95888.31;10288713;28;98156;-72
2022/03/04 10:37:20;;;;;;;20.42;13.65;;;;;;;5.07;56.05;95887.31;10283849;28;97088;-72
2022/03/04 10:42:39;;;;;;;21.35;12.57;;;;;;;5.30;55.08;95886.28;10285324;28;97010;-72
2022/03/04 10:47:46;;;;;;;20.77;13.48;;;;;;;5.49;55.28;95879.59;10286411;28;98522;-72
2022/03/04 10:52:58;;;;;;;20.55;12.63;;;;;;;5.63;54.42;95881.88;10271294;28;97190;-72
2022/03/04 10:58:03;;;;;;;19.30;12.77;;;;;;;5.81;53.46;95889.94;10283140;28;98612;-72
2022/03/04 11:03:07;;;;;;;22.80;12.48;;;;;;;6.01;52.68;95879.66;10282510;28;97904;-73
2022/03/04 11:08:11;;;;;;;19.70;11.80;;;;;;;6.16;52.00;95870.59;10285336;28;97153;-72
2022/03/04 11:13:15;;;;;;;21.37;13.03;;;;;;;6.18;51.30;95875.66;10280224;28;98131;-72
2022/03/04 11:18:22;;;;;;;18.65;12.90;;;;;;;6.35;50.83;95869.88;10277381;28;96815;-72
2022/03/04 11:23:26;;;;;;;18.92;12.85;;;;;;;6.47;49.62;95866.22;10279039;28;97921;-72
2022/03/04 11:28:36;;;;;;;17.93;11.87;;;;;;;6.62;49.26;95855.47;10278727;28;97795;-73
2022/03/04 11:33:46;;;;;;;17.30;11.98;;;;;;;6.72;48.75;95858.91;10277696;28;96942;-73
2022/03/04 11:38:58;;;;;;;17.92;12.45;;;;;;;6.81;48.77;95855.50;10276311;28;96990;-72
2022/03/04 11:44:09;;;;;;;19.00;12.50;;;;;;;6.94;48.61;95849.25;10280041;28;97160;-73
2022/03/04 11:49:46;;;;;;;20.15;12.75;;;;;;;7.11;48.18;95848.63;10280169;28;98260;-74
2022/03/04 11:55:10;;;;;;;20.38;13.38;;;;;;;7.28;47.84;95838.50;10155738;28;97191;-73
2022/03/04 12:00:24;;;;;;;19.05;13.55;;;;;;;7.43;48.14;95836.31;10153430;28;98472;-73
2022/03/04 12:05:33;;;;;;;20.95;13.10;;;;;;;7.52;48.03;95825.88;10153256;28;99017;-73
2022/03/04 12:10:41;;;;;;;18.88;13.40;;;;;;;7.66;47.33;95819.44;10152805;28;97049;-73
2022/03/04 12:15:49;;;;;;;20.73;13.93;;;;;;;7.70;46.06;95814.78;10146476;28;97669;-73
2022/03/04 12:21:06;;;;;;;20.73;13.20;;;;;;;7.85;46.79;95813.38;10157680;28;96868;-73
2022/03/04 12:26:12;;;;;;;18.75;13.77;;;;;;;8.02;46.17;95811.00;10159804;28;97084;-73
2022/03/04 12:31:21;;;;;;;20.77;13.32;;;;;;;8.23;46.24;95813.38;10264742;28;97372;-73
2022/03/04 12:36:28;;;;;;;18.95;13.55;;;;;;;8.38;45.52;95800.69;10278166;28;98191;-73
2022/03/04 12:41:33;;;;;;;17.58;12.98;;;;;;;8.47;44.66;95797.25;10278399;28;96914;-73
2022/03/04 12:46:38;;;;;;;20.20;13.43;;;;;;;8.51;45.02;95795.97;10277589;28;96846;-72
2022/03/04 12:51:44;;;;;;;20.23;13.50;;;;;;;8.61;43.78;95783.72;10286194;28;97049;-72
2022/03/04 12:56:51;;;;;;;18.33;12.90;;;;;;;8.60;42.37;95795.09;10275255;28;96914;-73
2022/03/04 13:01:54;;;;;;;18.45;12.15;;;;;;;8.59;42.66;95784.84;10277158;28;96894;-72
2022/03/04 13:07:00;;;;;;;18.50;12.85;;;;;;;8.60;41.93;95784.69;10288017;28;96830;-72
2022/03/04 13:12:05;;;;;;;17.70;12.75;;;;;;;8.82;42.69;95785.25;10286308;28;96936;-72
2022/03/04 13:17:12;;;;;;;15.75;11.75;;;;;;;9.06;41.89;95779.44;10282457;28;98647;-72
2022/03/04 13:22:18;;;;;;;15.63;11.40;;;;;;;9.33;41.70;95781.09;10290769;28;97102;-71
2022/03/04 13:27:22;;;;;;;16.85;12.35;;;;;;;9.49;41.32;95770.03;10289244;28;98755;-72
2022/03/04 13:32:26;;;;;;;16.45;11.93;;;;;;;9.70;40.85;95772.28;10289703;28;97694;-71
2022/03/04 13:37:38;;;;;;;20.07;12.50;;;;;;;9.77;40.06;95778.53;10287289;28;97976;-72
2022/03/04 13:42:44;;;;;;;14.95;11.20;;;;;;;10.09;40.02;95774.44;10293854;28;97027;-72
2022/03/04 13:47:53;;;;;;;15.85;11.32;;;;;;;10.28;39.37;95769.97;10262884;28;96927;-72
2022/03/04 13:53:00;;;;;;;16.48;11.55;;;;;;;10.60;39.06;95764.84;10266781;28;96779;-71
2022/03/04 13:58:09;;;;;;;16.55;11.40;;;;;;;11.03;38.50;95769.16;10265600;28;97309;-71
2022/03/04 14:03:15;;;;;;;16.63;11.18;;;;;;;10.59;36.92;95757.97;10263764;28;98156;-72
2022/03/04 14:08:20;;;;;;;14.35;10.98;;;;;;;10.68;36.99;95750.97;10265744;28;97307;-72
2022/03/04 14:13:24;;;;;;;;;;;;;;;11.01;37.09;95751.03;10265741;28;96912;-71
2022/03/04 14:18:32;;;;;;;16.27;10.80;;;;;;;11.67;36.71;95748.41;10283444;28;96865;-72
2022/03/04 14:23:38;;;;;;;14.32;10.02;;;;;;;12.24;36.68;95744.81;10274056;28;97086;-72
2022/03/04 14:29:09;;;;;;;14.65;11.40;;;;;;;12.73;35.68;95747.16;10275723;28;96922;-72
2022/03/04 14:34:06;;;;;;;13.95;10.63;;;;;;;13.12;35.07;95743.66;10276026;28;96995;-72
2022/03/04 14:39:10;;;;;;;14.20;10.75;;;;;;;13.34;34.60;95733.31;10266015;28;97204;-73
2022/03/04 14:44:13;;;;;;;15.40;10.97;;;;;;;13.44;34.19;95739.13;10275504;28;97155;-72
2022/03/04 14:49:16;;;;;;;14.98;11.63;;;;;;;13.57;34.95;95735.91;10277709;28;97574;-72
2022/03/04 14:54:21;;;;;;;15.10;11.00;;;;;;;13.61;33.75;95734.56;10262525;28;98111;-72
2022/03/04 14:59:24;;;;;;;;;;;;;;;13.96;35.17;95734.84;10273844;28;97265;-72
2022/03/04 15:04:27;;;;;;;13.00;10.45;;;;;;;14.27;33.65;95729.41;10278826;28;97707;-73
2022/03/04 15:09:32;;;;;;;13.23;10.23;;;;;;;14.51;33.85;95735.38;10263365;28;97594;-72
2022/03/04 15:14:55;;;;;;;11.82;9.15;;;;;;;14.55;33.91;95736.63;10281547;28;96988;-72
2022/03/04 15:20:01;;;;;;;11.80;9.32;;;;;;;14.67;32.17;95735.16;10277106;28;97786;-72
2022/03/04 15:25:10;;;;;;;12.43;9.40;;;;;;;14.71;32.56;95736.44;10271001;28;96940;-73
2022/03/04 15:30:14;;;;;;;13.52;10.80;;;;;;;14.37;32.26;95737.84;10267195;28;96764;-72
2022/03/04 15:35:17;;;;;;;14.18;11.48;;;;;;;13.86;31.92;95737.75;10295780;28;96874;-72
2022/03/04 15:40:22;;;;;;;15.45;11.07;;;;;;;13.67;32.93;95733.03;10273689;28;96761;-72
2022/03/04 15:45:25;;;;;;;13.40;10.23;;;;;;;13.40;33.41;95728.19;10264802;28;96956;-72
2022/03/04 15:50:28;;;;;;;13.07;10.57;;;;;;;13.46;33.54;95726.66;10272149;28;96765;-72
2022/03/04 15:55:32;;;;;;;14.38;11.02;;;;;;;13.18;32.82;95729.84;10271525;28;97383;-72
2022/03/04 16:00:35;;;;;;;18.13;10.77;;;;;;;12.98;33.48;95729.50;10284383;28;96862;-72
2022/03/04 16:05:38;;;;;;;12.45;10.18;;;;;;;12.80;33.38;95732.38;10269842;28;98081;-72
2022/03/04 16:10:43;;;;;;;13.65;10.30;;;;;;;12.93;33.36;95725.78;10273300;28;97270;-72
2022/03/04 16:15:46;;;;;;;14.80;10.50;;;;;;;12.96;33.80;95726.25;10268403;28;97009;-73
2022/03/04 16:20:49;;;;;;;13.80;10.18;;;;;;;13.18;33.26;95723.78;10276088;28;96932;-72
2022/03/04 16:25:54;;;;;;;13.07;10.00;;;;;;;13.24;33.72;95723.91;10276205;28;97316;-72
2022/03/04 16:30:57;;;;;;;12.95;9.88;;;;;;;13.04;33.08;95728.81;10287222;28;96807;-72
2022/03/04 16:36:00;;;;;;;14.32;10.20;;;;;;;12.95;34.10;95724.63;10272167;28;97155;-72
2022/03/04 16:41:05;;;;;;;15.80;9.68;;;;;;;12.74;32.84;95722.59;10279234;28;96986;-72
2022/03/04 16:46:08;;;;;;;12.05;9.77;;;;;;;12.47;34.01;95732.59;10278530;28;98320;-72
2022/03/04 16:51:28;;;;;;;13.15;9.15;;;;;;;11.83;33.81;95740.53;10267569;28;97102;-72
2022/03/04 16:56:32;;;;;;;13.93;9.45;;;;;;;11.30;34.19;95747.94;10287015;28;96850;-72
2022/03/04 17:01:36;;;;;;;13.25;9.20;;;;;;;11.01;34.88;95745.00;10287219;28;100009;-72
2022/03/04 17:06:39;;;;;;;14.80;9.85;;;;;;;10.51;35.34;95752.75;10281363;28;97197;-72
2022/03/04 17:11:45;;;;;;;16.92;11.85;;;;;;;9.84;37.13;95753.44;10275497;28;96963;-72
2022/03/04 17:16:48;;;;;;;13.95;11.05;;;;;;;9.41;37.91;95762.94;10288654;28;96904;-72
2022/03/04 17:21:51;;;;;;;30.85;20.38;;;;;;;9.19;38.70;95763.41;10274958;28;96915;-72
2022/03/04 17:26:56;;;;;;;17.88;12.25;;;;;;;8.94;38.72;95765.81;10294067;28;96862;-72
2022/03/04 17:31:59;;;;;;;18.65;12.75;;;;;;;8.68;40.26;95771.75;10296215;28;96818;-72
2022/03/04 17:37:09;;;;;;;17.35;11.88;;;;;;;8.25;40.91;95770.63;10275463;28;99590;-72
2022/03/04 17:42:30;;;;;;;17.80;11.45;;;;;;;8.10;40.79;95782.47;10277458;28;97124;-72
2022/03/04 17:47:33;;;;;;;17.52;11.60;;;;;;;7.96;40.79;95783.75;10287100;28;99697;-72
2022/03/04 17:52:36;;;;;;;16.02;11.15;;;;;;;7.77;40.89;95797.66;10287304;28;97356;-72
2022/03/04 17:57:40;;;;;;;17.25;10.88;;;;;;;7.62;40.50;95793.88;10266967;28;96856;-72
2022/03/04 18:02:43;;;;;;;14.27;10.33;;;;;;;7.53;39.37;95798.94;10275342;28;96948;-72
2022/03/04 18:07:48;;;;;;;12.88;9.20;;;;;;;7.30;37.97;95790.66;10276002;28;96969;-72
2022/03/04 18:12:57;;;;;;;14.63;7.93;;;;;;;7.39;37.74;95807.19;10287613;28;96741;-72
2022/03/04 18:18:00;;;;;;;10.88;7.55;;;;;;;7.26;36.27;95798.84;10282397;28;96908;-72
2022/03/04 18:23:08;;;;;;;10.25;7.28;;;;;;;7.06;34.85;95798.84;10274758;28;97044;-72
2022/03/04 18:28:13;;;;;;;8.38;5.82;;;;;;;7.02;34.75;95810.47;10281256;28;97024;-72
2022/03/04 18:33:16;;;;;;;;;;;;;;;6.98;33.22;95809.09;10269295;28;96803;-72
2022/03/04 18:43:40;;;;;;;7.25;5.45;;;;;;;6.86;31.93;95813.56;10266407;28;98593;-72
2022/03/04 18:48:46;;;;;;;10.13;5.72;;;;;;;6.79;31.46;95813.28;10282092;28;96998;-72
2022/03/04 18:53:49;;;;;;;8.05;5.80;;;;;;;6.80;32.01;95814.13;10282935;28;98042;-72
2022/03/04 18:58:53;;;;;;;10.05;6.35;;;;;;;6.68;32.07;95829.00;10279393;28;97864;-71
2022/03/04 19:03:56;;;;;;;9.07;5.75;;;;;;;6.58;32.70;95835.94;10284191;28;97814;-71
2022/03/04 19:08:59;;;;;;;9.98;6.68;;;;;;;6.44;32.88;95840.53;10286984;28;99577;-71
2022/03/04 19:14:04;;;;;;;9.32;6.20;;;;;;;6.37;32.69;95844.59;10285424;28;97346;-72
2022/03/04 19:19:09;;;;;;;9.65;5.97;;;;;;;6.23;32.67;95844.97;10281730;28;98460;-72
2022/03/04 19:24:13;;;;;;;;;;;;;;;6.09;31.88;95857.31;10280879;28;96979;-71
2022/03/04 19:29:17;;;;;;;7.45;5.70;;;;;;;5.94;32.54;95858.63;10291791;28;97190;-71
2022/03/04 19:34:20;;;;;;;7.80;6.03;;;;;;;5.86;32.21;95853.25;10283177;28;98536;-71
2022/03/04 19:39:23;;;;;;;10.60;6.18;;;;;;;5.78;32.08;95859.06;10287573;28;96983;-71
2022/03/04 19:44:32;;;;;;;9.10;5.95;;;;;;;5.70;32.44;95866.66;10277323;28;97056;-72
2022/03/04 19:49:35;;;;;;;8.47;5.23;;;;;;;5.68;32.56;95868.56;10279012;28;96855;-71
2022/03/04 19:54:39;;;;;;;9.07;6.13;;;;;;;5.60;32.75;95876.13;10288612;28;97323;-72
2022/03/04 19:59:44;;;;;;;8.85;6.00;;;;;;;5.48;32.03;95875.38;10281177;28;97241;-71
2022/03/04 20:04:47;;;;;;;8.60;6.63;;;;;;;5.40;32.10;95881.19;10281945;28;97223;-72
2022/03/04 20:09:51;;;;;;;8.27;5.53;;;;;;;5.41;32.12;95882.00;10284800;28;96963;-72
2022/03/04 20:14:55;;;;;;;8.60;5.47;;;;;;;5.39;31.88;95886.47;10263815;28;98780;-72
2022/03/04 20:19:58;;;;;;;8.40;5.18;;;;;;;5.34;31.59;95887.69;10259018;28;99331;-71
2022/03/04 20:25:02;;;;;;;10.27;5.40;;;;;;;5.29;31.90;95900.19;10276941;28;98197;-71
2022/03/04 20:30:09;;;;;;;8.88;5.80;;;;;;;5.28;31.66;95898.53;10278009;28;97004;-71
2022/03/04 20:35:12;;;;;;;9.65;5.63;;;;;;;5.31;31.63;95895.69;10283579;28;96798;-72
2022/03/04 20:40:15;;;;;;;8.73;6.03;;;;;;;5.27;31.95;95896.91;10277354;28;96919;-77
2022/03/04 20:45:20;;;;;;;9.55;5.90;;;;;;;5.25;31.65;95897.94;10284549;28;97544;-77
2022/03/04 20:50:25;;;;;;;10.30;6.63;;;;;;;5.24;32.57;95894.56;10269156;28;98231;-77
2022/03/04 20:55:28;;;;;;;8.77;6.13;;;;;;;5.25;32.52;95903.97;10277556;28;98403;-77
2022/03/04 21:00:42;;;;;;;10.25;6.75;;;;;;;5.23;32.10;95903.25;10280875;28;96829;-77
2022/03/04 21:05:45;;;;;;;13.57;7.07;;;;;;;5.20;32.97;95906.13;10280721;28;97002;-77
2022/03/04 21:10:48;;;;;;;12.95;6.63;;;;;;;5.19;33.25;95898.47;10285750;28;96991;-77
2022/03/04 21:15:53;;;;;;;12.10;7.55;;;;;;;5.17;33.24;95910.69;10283765;28;98076;-77
2022/03/04 21:20:57;;;;;;;9.82;6.80;;;;;;;5.10;33.49;95905.19;10292854;28;96854;-77
2022/03/04 21:26:00;;;;;;;11.23;7.10;;;;;;;5.09;33.15;95906.13;10290058;28;97335;-78
2022/03/04 21:31:04;;;;;;;11.63;6.72;;;;;;;5.03;33.69;95915.22;10283119;28;98065;-78
2022/03/04 21:36:07;;;;;;;11.10;6.85;;;;;;;4.91;34.16;95911.81;10292616;28;96995;-77
2022/03/04 21:41:11;;;;;;;11.65;6.93;;;;;;;4.87;34.07;95920.78;10279213;28;98586;-78
2022/03/04 21:46:15;;;;;;;9.77;6.38;;;;;;;4.77;34.27;95919.84;10290075;28;96865;-78
2022/03/04 21:51:18;;;;;;;12.47;7.63;;;;;;;4.67;33.94;95918.94;10284536;28;96771;-78
2022/03/04 21:56:21;;;;;;;10.57;6.95;;;;;;;4.56;34.89;95923.16;10283355;28;97240;-78
2022/03/04 22:01:26;;;;;;;12.52;7.35;;;;;;;4.32;34.97;95920.69;10272409;28;97195;-77
2022/03/04 22:06:29;;;;;;;21.33;14.00;;;;;;;4.09;35.59;95914.69;10284133;28;97223;-77
2022/03/04 22:11:33;;;;;;;16.25;9.77;;;;;;;3.92;35.83;95918.53;10288045;28;96860;-78
2022/03/04 22:16:37;;;;;;;14.60;8.50;;;;;;;3.74;36.09;95910.41;10285922;28;97201;-77
2022/03/04 22:21:40;;;;;;;14.95;10.20;;;;;;;3.51;36.26;95914.66;10275362;28;97161;-77
2022/03/04 22:26:43;;;;;;;13.55;8.75;;;;;;;2.96;37.44;95919.47;10289541;28;98400;-78
2022/03/04 22:31:47;;;;;;;21.90;13.18;;;;;;;2.85;37.27;95916.81;10292058;28;96883;-77
2022/03/04 22:36:50;;;;;;;11.10;7.27;;;;;;;2.53;38.39;95919.91;10292889;28;97542;-79
2022/03/04 22:41:53;;;;;;;10.52;7.30;;;;;;;2.43;38.32;95921.47;10286450;28;98808;-77
2022/03/04 22:46:57;;;;;;;8.93;5.50;;;;;;;2.33;38.67;95915.28;10285020;28;96927;-78
2022/03/04 22:52:00;;;;;;;8.23;4.95;;;;;;;2.25;38.15;95919.22;10279567;28;96813;-78
2022/03/04 22:57:03;;;;;;;9.13;5.32;;;;;;;2.10;38.15;95920.25;10299803;28;99042;-77
2022/03/04 23:02:08;;;;;;;9.32;5.63;;;;;;;1.89;39.13;95912.22;10276042;28;97055;-77
2022/03/04 23:12:32;;;;;;;6.90;4.65;;;;;;;1.64;39.72;95913.81;10287186;28;97145;-78
2022/03/04 23:17:36;;;;;;;8.02;4.13;;;;;;;1.50;39.69;95919.88;10271733;28;96819;-78
2022/03/04 23:22:39;;;;;;;8.20;4.90;;;;;;;1.43;39.73;95928.94;10283957;28;96980;-78
2022/03/04 23:27:42;;;;;;;14.00;7.07;;;;;;;1.30;40.28;95918.59;10276964;28;97966;-78
2022/03/04 23:33:02;;;;;;;16.35;9.52;;;;;;;1.07;41.34;95925.22;10278737;28;96784;-78
2022/03/04 23:38:05;;;;;;;19.70;8.65;;;;;;;0.96;41.32;95943.06;10271962;28;97444;-78